createdAt,value
2018-11-27T00:01:00.560Z,19.33
2018-11-27T00:03:33.820Z,19.90
2018-11-27T00:06:03.728Z,19.90
2018-11-27T00:08:33.013Z,24.13
2018-11-27T00:11:02.964Z,18.82
2018-11-27T00:13:32.531Z,19.30
2018-11-27T00:16:02.383Z,22.67
2018-11-27T00:18:31.655Z,21.83
2018-11-27T00:21:00.992Z,22.50
2018-11-27T00:23:30.298Z,20.40
2018-11-27T00:26:00.907Z,22.30
2018-11-27T00:28:30.426Z,21.23
2018-11-27T00:31:00.877Z,21.90
2018-11-27T00:33:30.325Z,20.33
2018-11-27T00:36:00.690Z,25.17
2018-11-27T00:38:29.969Z,24.00
2018-11-27T00:41:00.935Z,22.80
2018-11-27T00:43:30.567Z,26.17
2018-11-27T00:46:01.387Z,23.45
2018-11-27T00:48:30.813Z,23.30
2018-11-27T00:51:01.104Z,19.23
2018-11-27T00:53:30.654Z,20.10
2018-11-27T00:56:01.110Z,18.70
2018-11-27T00:58:30.688Z,21.70
2018-11-27T01:01:01.157Z,26.20
2018-11-27T01:03:30.462Z,23.40
2018-11-27T01:06:01.373Z,23.75
2018-11-27T01:08:30.833Z,15.93
2018-11-27T01:11:01.069Z,22.70
2018-11-27T01:13:30.432Z,25.90
2018-11-27T01:16:01.116Z,26.50
2018-11-27T01:18:30.884Z,27.90
2018-11-27T01:21:01.410Z,26.37
2018-11-27T01:23:30.456Z,28.27
2018-11-27T01:26:01.236Z,23.13
2018-11-27T01:28:30.831Z,29.70
2018-11-27T01:31:01.338Z,24.60
2018-11-27T01:33:30.677Z,25.97
2018-11-27T01:36:01.676Z,24.57
2018-11-27T01:38:31.060Z,24.03
2018-11-27T01:41:01.634Z,25.12
2018-11-27T01:43:31.573Z,21.23
2018-11-27T01:46:01.346Z,26.40
2018-11-27T01:48:30.718Z,24.17
2018-11-27T01:51:01.358Z,25.50
2018-11-27T01:53:30.908Z,22.55
2018-11-27T01:56:01.082Z,26.67
2018-11-27T01:58:30.409Z,26.50
2018-11-27T02:01:00.712Z,22.20
2018-11-27T02:03:30.282Z,28.43
2018-11-27T02:05:59.569Z,21.53
2018-11-27T02:08:29.468Z,28.03
2018-11-27T02:10:59.038Z,21.87
2018-11-27T02:13:28.331Z,26.37
2018-11-27T02:15:58.003Z,25.23
2018-11-27T02:18:27.306Z,24.97
2018-11-27T02:20:57.207Z,26.00
2018-11-27T02:23:27.143Z,26.23
2018-11-27T02:25:58.318Z,23.87
2018-11-27T02:28:27.367Z,25.10
2018-11-27T02:30:57.104Z,23.07
2018-11-27T02:33:26.371Z,24.90
2018-11-27T02:35:55.713Z,25.77
2018-11-27T02:38:25.319Z,22.37
2018-11-27T02:40:54.620Z,27.43
2018-11-27T02:43:23.642Z,23.20
2018-11-27T02:45:53.217Z,22.03
2018-11-27T02:48:22.839Z,26.10
2018-11-27T02:50:52.281Z,22.80
2018-11-27T02:53:21.582Z,29.77
2018-11-27T02:55:51.030Z,24.37
2018-11-27T02:58:20.622Z,23.00
2018-11-27T03:00:50.843Z,26.30
2018-11-27T03:03:19.857Z,24.03
2018-11-27T03:05:50.655Z,19.77
2018-11-27T03:08:19.997Z,24.83
2018-11-27T03:10:49.609Z,22.57
2018-11-27T03:13:18.878Z,27.37
2018-11-27T03:15:48.815Z,20.87
2018-11-27T03:18:18.584Z,23.38
2018-11-27T03:20:47.886Z,24.50
2018-11-27T03:23:17.589Z,23.70
2018-11-27T03:25:46.873Z,20.63
2018-11-27T03:28:16.481Z,19.70
2018-11-27T03:30:45.815Z,20.37
2018-11-27T03:33:15.432Z,19.83
2018-11-27T03:35:44.719Z,18.70
2018-11-27T03:38:14.020Z,20.60
2018-11-27T03:40:43.540Z,17.43
2018-11-27T03:43:12.868Z,20.90
2018-11-27T03:45:42.191Z,22.17
2018-11-27T03:48:11.569Z,22.80
2018-11-27T03:50:41.716Z,19.73
2018-11-27T03:53:11.350Z,21.83
2018-11-27T03:55:40.653Z,20.40
2018-11-27T03:58:09.915Z,22.37
2018-11-27T04:00:39.485Z,22.20
2018-11-27T04:03:10.189Z,21.20
2018-11-27T04:05:40.313Z,23.07
2018-11-27T04:08:10.257Z,20.97
2018-11-27T04:10:41.096Z,26.47
2018-11-27T04:13:10.093Z,22.70
2018-11-27T04:15:39.938Z,28.00
2018-11-27T04:18:09.899Z,24.07
2018-11-27T04:20:39.203Z,57.10
2018-11-27T04:23:08.795Z,18.32
2018-11-27T04:25:38.095Z,27.03
2018-11-27T04:28:08.188Z,23.52
2018-11-27T04:30:37.685Z,31.37
2018-11-27T04:33:06.956Z,19.47
2018-11-27T04:35:36.244Z,24.03
2018-11-27T04:38:06.528Z,21.07
2018-11-27T04:40:35.812Z,26.90
2018-11-27T04:43:05.979Z,32.10
2018-11-27T04:45:35.300Z,25.60
2018-11-27T04:48:05.437Z,24.03
2018-11-27T04:50:34.880Z,29.77
2018-11-27T04:53:04.535Z,21.57
2018-11-27T04:55:34.274Z,31.00
2018-11-27T04:58:04.163Z,24.73
2018-11-27T05:00:34.111Z,24.37
2018-11-27T05:03:03.425Z,28.40
2018-11-27T05:05:32.897Z,22.53
2018-11-27T05:08:02.171Z,25.43
2018-11-27T05:10:31.748Z,25.43
2018-11-27T05:13:02.177Z,32.30
2018-11-27T05:15:31.461Z,36.67
2018-11-27T05:18:01.808Z,28.93
2018-11-27T05:20:31.105Z,26.60
2018-11-27T05:23:00.393Z,25.47
2018-11-27T05:25:30.110Z,30.40
2018-11-27T05:27:59.477Z,25.17
2018-11-27T05:30:30.064Z,28.13
2018-11-27T05:32:59.400Z,24.73
2018-11-27T05:35:30.541Z,30.07
2018-11-27T05:38:02.146Z,31.77
2018-11-27T05:40:31.587Z,38.03
2018-11-27T05:43:04.218Z,28.30
2018-11-27T05:45:34.694Z,31.97
2018-11-27T05:48:04.598Z,25.50
2018-11-27T05:50:34.792Z,27.57
2018-11-27T05:53:05.155Z,31.40
2018-11-27T05:55:34.521Z,27.70
2018-11-27T05:58:04.228Z,25.53
2018-11-27T06:00:36.856Z,28.73
2018-11-27T06:03:09.252Z,26.23
2018-11-27T06:05:38.612Z,27.40
2018-11-27T06:08:09.523Z,23.45
2018-11-27T06:10:39.128Z,27.77
2018-11-27T06:13:08.760Z,30.88
2018-11-27T06:15:38.657Z,26.20
2018-11-27T06:18:08.303Z,25.50
2018-11-27T06:20:38.040Z,23.67
2018-11-27T06:23:07.749Z,24.87
2018-11-27T06:25:37.158Z,24.93
2018-11-27T06:28:08.315Z,29.70
2018-11-27T06:30:38.190Z,27.70
2018-11-27T06:33:07.535Z,27.87
2018-11-27T06:35:41.818Z,26.67
2018-11-27T06:38:11.979Z,25.17
2018-11-27T06:40:42.243Z,25.57
2018-11-27T06:43:12.572Z,25.60
2018-11-27T06:45:43.098Z,25.50
2018-11-27T06:48:12.403Z,27.33
2018-11-27T06:50:41.694Z,24.30
2018-11-27T06:53:10.965Z,32.80
2018-11-27T06:55:40.390Z,25.13
2018-11-27T06:58:09.667Z,34.90
2018-11-27T07:00:39.283Z,30.90
2018-11-27T07:03:10.634Z,30.50
2018-11-27T07:05:39.978Z,31.77
2018-11-27T07:08:09.753Z,31.53
2018-11-27T07:10:41.385Z,29.37
2018-11-27T07:13:13.067Z,28.10
2018-11-27T07:15:42.436Z,26.90
2018-11-27T07:18:11.748Z,25.60
2018-11-27T07:20:42.226Z,29.20
2018-11-27T07:23:11.799Z,30.10
2018-11-27T07:25:41.383Z,34.10
2018-11-27T07:28:10.679Z,35.07
2018-11-27T07:30:41.239Z,30.23
2018-11-27T07:33:11.535Z,34.53
2018-11-27T07:35:41.314Z,30.27
2018-11-27T07:38:10.658Z,38.47
2018-11-27T07:40:39.942Z,27.87
2018-11-27T07:43:10.963Z,30.52
2018-11-27T07:45:40.727Z,36.47
2018-11-27T07:48:10.851Z,29.80
2018-11-27T07:50:40.159Z,32.27
2018-11-27T07:53:09.854Z,38.20
2018-11-27T07:55:39.150Z,36.87
2018-11-27T07:58:08.771Z,32.30
2018-11-27T08:00:38.440Z,31.17
2018-11-27T08:03:07.805Z,42.60
2018-11-27T08:05:41.225Z,36.50
2018-11-27T08:08:14.906Z,30.10
2018-11-27T08:10:45.006Z,32.03
2018-11-27T08:13:14.794Z,31.20
2018-11-27T08:15:45.242Z,29.40
2018-11-27T08:18:14.724Z,34.53
2018-11-27T08:20:44.278Z,27.60
2018-11-27T08:23:13.903Z,30.85
2018-11-27T08:25:43.227Z,29.40
2018-11-27T08:28:13.264Z,37.63
2018-11-27T08:30:43.540Z,37.33
2018-11-27T08:33:12.471Z,36.07
2018-11-27T08:35:41.795Z,27.50
2018-11-27T08:38:11.343Z,32.53
2018-11-27T08:40:41.259Z,32.63
2018-11-27T08:43:10.863Z,29.60
2018-11-27T08:45:40.509Z,38.93
2018-11-27T08:48:10.367Z,31.53
2018-11-27T08:50:40.032Z,38.07
2018-11-27T08:53:09.309Z,34.23
2018-11-27T08:55:41.147Z,32.13
2018-11-27T08:58:14.983Z,33.27
2018-11-27T09:00:44.927Z,37.10
2018-11-27T09:03:14.472Z,41.43
2018-11-27T09:05:44.085Z,33.80
2018-11-27T09:08:14.052Z,37.20
2018-11-27T09:10:43.851Z,36.27
2018-11-27T09:13:13.386Z,35.93
2018-11-27T09:15:42.490Z,34.80
2018-11-27T09:18:20.903Z,38.33
2018-11-27T09:20:50.372Z,34.30
2018-11-27T09:23:20.281Z,37.50
2018-11-27T09:25:49.631Z,31.43
2018-11-27T09:28:19.119Z,42.80
2018-11-27T09:30:48.413Z,49.73
2018-11-27T09:33:18.348Z,38.03
2018-11-27T09:35:47.669Z,36.57
2018-11-27T09:38:17.223Z,32.47
2018-11-27T09:40:46.551Z,35.67
2018-11-27T09:43:16.146Z,32.40
2018-11-27T09:45:46.503Z,30.50
2018-11-27T09:48:16.125Z,30.62
2018-11-27T09:50:45.420Z,30.00
2018-11-27T09:53:15.450Z,28.50
2018-11-27T09:55:44.503Z,30.83
2018-11-27T09:58:14.109Z,36.60
2018-11-27T10:00:43.697Z,27.53
2018-11-27T10:03:15.275Z,28.33
2018-11-27T10:05:44.554Z,32.10
2018-11-27T10:08:14.119Z,34.03
2018-11-27T10:10:44.269Z,31.20
2018-11-27T10:13:13.569Z,30.27
2018-11-27T10:15:43.055Z,27.47
2018-11-27T10:18:12.760Z,31.57
2018-11-27T10:20:42.848Z,27.83
2018-11-27T10:23:15.327Z,32.75
2018-11-27T10:25:44.938Z,27.40
2018-11-27T10:28:14.540Z,33.93
2018-11-27T10:30:43.848Z,29.27
2018-11-27T10:33:13.455Z,28.00
2018-11-27T10:35:50.801Z,27.60
2018-11-27T10:38:20.409Z,24.65
2018-11-27T10:40:49.785Z,25.53
2018-11-27T10:43:19.969Z,29.18
2018-11-27T10:45:48.893Z,26.63
2018-11-27T10:48:18.773Z,30.87
2018-11-27T10:50:48.366Z,37.23
2018-11-27T10:53:17.615Z,29.20
2018-11-27T10:55:46.949Z,31.70
2018-11-27T10:58:16.595Z,30.50
2018-11-27T11:00:51.338Z,35.87
2018-11-27T11:03:25.225Z,28.13
2018-11-27T11:05:56.200Z,33.60
2018-11-27T11:08:26.377Z,37.17
2018-11-27T11:10:55.673Z,31.17
2018-11-27T11:13:24.968Z,30.97
2018-11-27T11:15:54.427Z,35.23
2018-11-27T11:18:24.182Z,30.30
2018-11-27T11:20:53.458Z,31.93
2018-11-27T11:23:22.469Z,36.33
2018-11-27T11:25:51.803Z,37.63
2018-11-27T11:28:23.215Z,32.00
2018-11-27T11:30:52.826Z,36.07
2018-11-27T11:33:22.361Z,37.50
2018-11-27T11:35:51.654Z,28.93
2018-11-27T11:38:20.956Z,33.63
2018-11-27T11:40:50.801Z,35.50
2018-11-27T11:43:20.862Z,32.33
2018-11-27T11:45:50.393Z,30.93
2018-11-27T11:48:19.723Z,31.70
2018-11-27T11:50:49.068Z,32.80
2018-11-27T11:53:19.666Z,32.33
2018-11-27T11:55:49.555Z,31.23
2018-11-27T11:58:19.171Z,32.87
2018-11-27T12:00:51.004Z,34.73
2018-11-27T12:03:20.322Z,32.20
2018-11-27T12:05:53.758Z,32.27
2018-11-27T12:08:23.095Z,33.07
2018-11-27T12:10:52.616Z,32.33
2018-11-27T12:13:22.828Z,39.47
2018-11-27T12:15:53.324Z,33.27
2018-11-27T12:18:22.687Z,35.93
2018-11-27T12:20:51.743Z,39.40
2018-11-27T12:23:21.033Z,33.70
2018-11-27T12:25:50.939Z,30.00
2018-11-27T12:28:20.231Z,34.40
2018-11-27T12:30:49.710Z,31.40
2018-11-27T12:33:19.015Z,32.60
2018-11-27T12:35:48.407Z,33.03
2018-11-27T12:38:19.681Z,33.73
2018-11-27T12:40:48.961Z,29.87
2018-11-27T12:43:18.601Z,28.27
2018-11-27T12:45:48.473Z,32.37
2018-11-27T12:48:20.284Z,36.20
2018-11-27T12:50:49.844Z,32.37
2018-11-27T12:53:19.388Z,35.80
2018-11-27T12:55:50.493Z,32.73
2018-11-27T12:58:27.373Z,31.03
2018-11-27T13:00:57.048Z,34.30
2018-11-27T13:03:26.673Z,34.73
2018-11-27T13:05:55.976Z,33.00
2018-11-27T13:08:25.591Z,37.87
2018-11-27T13:10:55.486Z,34.07
2018-11-27T13:13:25.319Z,33.70
2018-11-27T13:15:54.870Z,39.50
2018-11-27T13:18:24.270Z,34.77
2018-11-27T13:20:53.831Z,34.10
2018-11-27T13:23:23.453Z,35.40
2018-11-27T13:25:53.235Z,33.27
2018-11-27T13:28:22.580Z,38.87
2018-11-27T13:30:58.927Z,37.53
2018-11-27T13:33:32.281Z,44.33
2018-11-27T13:36:01.609Z,36.40
2018-11-27T13:38:30.983Z,31.83
2018-11-27T13:41:00.447Z,34.83
2018-11-27T13:43:31.306Z,34.43
2018-11-27T13:46:01.472Z,32.97
2018-11-27T13:48:31.030Z,33.43
2018-11-27T13:51:00.334Z,33.40
2018-11-27T13:53:29.981Z,34.43
2018-11-27T13:55:59.243Z,28.73
2018-11-27T13:58:29.134Z,35.37
2018-11-27T14:00:58.441Z,30.10
2018-11-27T14:03:28.140Z,38.73
2018-11-27T14:05:57.431Z,33.27
2018-11-27T14:08:26.861Z,32.50
2018-11-27T14:10:59.888Z,31.33
2018-11-27T14:13:29.331Z,34.00
2018-11-27T14:15:58.936Z,36.37
2018-11-27T14:18:28.701Z,36.60
2018-11-27T14:20:58.355Z,36.43
2018-11-27T14:23:28.016Z,34.37
2018-11-27T14:25:57.315Z,34.90
2018-11-27T14:28:26.927Z,37.67
2018-11-27T14:30:56.234Z,35.03
2018-11-27T14:33:25.572Z,35.87
2018-11-27T14:35:54.895Z,36.90
2018-11-27T14:38:25.389Z,34.80
2018-11-27T14:40:54.820Z,33.77
2018-11-27T14:43:24.307Z,35.87
2018-11-27T14:45:53.740Z,39.43
2018-11-27T14:48:23.692Z,36.87
2018-11-27T14:50:53.002Z,35.00
2018-11-27T14:53:22.947Z,38.70
2018-11-27T14:55:52.288Z,39.20
2018-11-27T14:58:21.870Z,39.30
2018-11-27T15:00:51.263Z,39.60
2018-11-27T15:03:21.106Z,34.40
2018-11-27T15:05:50.700Z,39.97
2018-11-27T15:08:19.975Z,39.25
2018-11-27T15:10:49.375Z,38.73
2018-11-27T15:13:18.863Z,40.67
2018-11-27T15:15:48.418Z,39.27
2018-11-27T15:18:17.809Z,40.47
2018-11-27T15:20:47.364Z,37.77
2018-11-27T15:23:16.664Z,39.80
2018-11-27T15:25:46.624Z,45.27
2018-11-27T15:28:15.893Z,40.93
2018-11-27T15:30:45.464Z,44.47
2018-11-27T15:33:18.685Z,41.50
2018-11-27T15:35:44.511Z,35.37
2018-11-27T15:38:13.881Z,41.00
2018-11-27T15:40:43.373Z,38.70
2018-11-27T15:43:13.190Z,38.53
2018-11-27T15:45:42.795Z,40.43
2018-11-27T15:48:12.086Z,39.00
2018-11-27T15:50:41.596Z,38.40
2018-11-27T15:53:10.767Z,45.50
2018-11-27T15:55:40.507Z,38.40
2018-11-27T15:58:12.090Z,39.90
2018-11-27T16:00:42.719Z,47.83
2018-11-27T16:03:12.637Z,37.80
2018-11-27T16:05:44.211Z,39.60
2018-11-27T16:08:14.786Z,39.03
2018-11-27T16:10:44.533Z,47.00
2018-11-27T16:13:14.249Z,39.87
2018-11-27T16:15:44.344Z,38.47
2018-11-27T16:18:14.223Z,39.73
2018-11-27T16:20:43.874Z,44.00
2018-11-27T16:23:13.498Z,40.30
2018-11-27T16:25:43.087Z,39.83
2018-11-27T16:28:13.320Z,39.57
2018-11-27T16:30:43.587Z,41.60
2018-11-27T16:33:12.967Z,40.30
2018-11-27T16:35:42.443Z,47.60
2018-11-27T16:38:13.068Z,41.17
2018-11-27T16:40:42.359Z,39.77
2018-11-27T16:43:12.184Z,44.27
2018-11-27T16:45:41.654Z,54.87
2018-11-27T16:48:11.007Z,135.80
2018-11-27T16:50:40.715Z,47.27
2018-11-27T16:53:10.480Z,57.60
2018-11-27T16:55:39.813Z,58.67
2018-11-27T16:58:09.466Z,47.33
2018-11-27T17:00:38.823Z,43.97
2018-11-27T17:03:08.953Z,45.37
2018-11-27T17:05:41.394Z,41.87
2018-11-27T17:08:12.252Z,45.17
2018-11-27T17:10:44.844Z,44.73
2018-11-27T17:13:15.548Z,38.27
2018-11-27T17:15:45.417Z,36.43
2018-11-27T17:18:15.301Z,41.40
2018-11-27T17:20:46.125Z,43.50
2018-11-27T17:23:19.396Z,40.77
2018-11-27T17:25:48.989Z,40.50
2018-11-27T17:28:25.807Z,39.07
2018-11-27T17:31:03.803Z,37.90
2018-11-27T17:33:35.232Z,36.47
2018-11-27T17:36:07.497Z,36.93
2018-11-27T17:38:37.559Z,38.47
2018-11-27T17:41:07.510Z,36.17
2018-11-27T17:43:37.418Z,42.60
2018-11-27T17:46:08.134Z,39.73
2018-11-27T17:48:37.529Z,35.83
2018-11-27T17:51:07.759Z,37.00
2018-11-27T17:53:37.085Z,30.80
2018-11-27T17:56:06.962Z,33.77
2018-11-27T17:58:36.465Z,31.13
2018-11-27T18:01:06.187Z,33.07
2018-11-27T18:03:35.845Z,41.80
2018-11-27T18:06:05.700Z,34.70
2018-11-27T18:08:35.119Z,32.83
2018-11-27T18:11:05.896Z,31.20
2018-11-27T18:13:36.177Z,30.93
2018-11-27T18:16:05.835Z,29.00
2018-11-27T18:18:35.215Z,34.40
2018-11-27T18:21:05.613Z,30.37
2018-11-27T18:23:35.066Z,29.20
2018-11-27T18:26:05.969Z,29.75
2018-11-27T18:28:35.555Z,30.70
2018-11-27T18:31:07.303Z,34.53
2018-11-27T18:33:36.610Z,33.40
2018-11-27T18:36:06.250Z,30.30
2018-11-27T18:38:35.580Z,29.40
2018-11-27T18:41:06.417Z,31.27
2018-11-27T18:43:35.725Z,31.30
2018-11-27T18:46:07.440Z,29.87
2018-11-27T18:48:36.809Z,28.33
2018-11-27T18:51:06.394Z,26.20
2018-11-27T18:53:47.690Z,30.63
2018-11-27T18:56:17.170Z,24.70
2018-11-27T18:58:49.000Z,26.40
2018-11-27T19:01:18.786Z,26.07
2018-11-27T19:03:48.360Z,27.77
2018-11-27T19:06:18.268Z,29.30
2018-11-27T19:08:48.120Z,27.37
2018-11-27T19:11:17.564Z,31.40
2018-11-27T19:13:46.977Z,54.67
2018-11-27T19:16:16.575Z,34.08
2018-11-27T19:18:47.190Z,27.77
2018-11-27T19:21:16.833Z,30.33
2018-11-27T19:23:46.398Z,27.07
2018-11-27T19:26:15.836Z,23.60
2018-11-27T19:28:45.393Z,23.10
2018-11-27T19:31:15.068Z,22.33
2018-11-27T19:33:44.636Z,22.00
2018-11-27T19:36:13.944Z,21.77
2018-11-27T19:38:43.519Z,24.63
2018-11-27T19:41:12.917Z,21.97
2018-11-27T19:43:42.267Z,22.53
2018-11-27T19:46:12.682Z,22.10
2018-11-27T19:48:42.044Z,33.17
2018-11-27T19:51:12.552Z,26.30
2018-11-27T19:53:41.953Z,28.53
2018-11-27T19:56:11.909Z,26.73
2018-11-27T19:58:41.443Z,21.80
2018-11-27T20:01:11.351Z,24.77
2018-11-27T20:03:41.262Z,23.90
2018-11-27T20:06:11.135Z,24.47
2018-11-27T20:08:40.690Z,21.90
2018-11-27T20:11:10.071Z,24.10
2018-11-27T20:13:39.377Z,22.73
2018-11-27T20:16:09.004Z,19.70
2018-11-27T20:18:38.325Z,20.53
2018-11-27T20:21:08.192Z,21.80
2018-11-27T20:23:37.796Z,23.30
2018-11-27T20:26:07.459Z,29.67
2018-11-27T20:28:36.744Z,24.90
2018-11-27T20:31:07.094Z,21.50
2018-11-27T20:33:36.838Z,24.43
2018-11-27T20:36:06.946Z,22.07
2018-11-27T20:38:42.846Z,18.57
2018-11-27T20:41:13.106Z,21.10
2018-11-27T20:43:42.417Z,23.50
2018-11-27T20:46:12.119Z,27.63
2018-11-27T20:48:41.413Z,37.37
2018-11-27T20:51:11.145Z,30.27
2018-11-27T20:53:40.437Z,29.27
2018-11-27T20:56:10.113Z,29.80
2018-11-27T20:58:39.548Z,29.27
2018-11-27T21:01:09.650Z,27.03
2018-11-27T21:03:39.732Z,33.77
2018-11-27T21:06:09.756Z,26.50
2018-11-27T21:08:39.287Z,31.13
2018-11-27T21:11:08.606Z,25.17
2018-11-27T21:13:37.998Z,29.50
2018-11-27T21:16:07.506Z,28.73
2018-11-27T21:18:37.023Z,29.70
2018-11-27T21:21:07.326Z,29.57
2018-11-27T21:23:36.635Z,29.03
2018-11-27T21:26:06.764Z,26.67
2018-11-27T21:28:36.122Z,27.70
2018-11-27T21:31:08.344Z,28.92
2018-11-27T21:33:37.906Z,30.27
2018-11-27T21:36:07.913Z,26.33
2018-11-27T21:38:37.206Z,24.90
2018-11-27T21:41:07.477Z,30.00
2018-11-27T21:43:37.349Z,23.90
2018-11-27T21:46:06.716Z,26.93
2018-11-27T21:48:36.030Z,27.87
2018-11-27T21:55:58.960Z,31.50
2018-11-27T21:58:28.288Z,34.17
2018-11-27T22:00:57.564Z,29.60
2018-11-27T22:03:27.180Z,25.83
2018-11-27T22:05:56.867Z,26.67
2018-11-27T22:08:25.913Z,24.97
2018-11-27T22:10:55.568Z,30.00
2018-11-27T22:13:24.901Z,24.70
2018-11-27T22:15:54.234Z,27.20
2018-11-27T22:18:24.484Z,24.83
2018-11-27T22:20:53.818Z,24.80
2018-11-27T22:23:23.134Z,24.50
2018-11-27T22:25:52.718Z,26.20
2018-11-27T22:28:22.061Z,27.13
2018-11-27T22:30:51.562Z,28.13
2018-11-27T22:33:21.141Z,21.70
2018-11-27T22:35:51.567Z,22.20
2018-11-27T22:38:20.970Z,27.37
2018-11-27T22:40:50.248Z,25.67
2018-11-27T22:43:19.594Z,25.80
2018-11-27T22:45:48.896Z,24.10
2018-11-27T22:48:20.105Z,25.37
2018-11-27T22:50:48.677Z,25.50
2018-11-27T22:53:18.925Z,26.43
2018-11-27T22:55:48.533Z,24.97
2018-11-27T22:58:17.871Z,20.17
2018-11-27T23:00:50.602Z,24.80
2018-11-27T23:03:19.922Z,21.37
2018-11-27T23:05:49.933Z,22.83
2018-11-27T23:08:19.215Z,20.83
2018-11-27T23:10:49.230Z,25.33
2018-11-27T23:13:18.508Z,23.03
2018-11-27T23:15:47.826Z,23.70
2018-11-27T23:18:17.411Z,19.40
2018-11-27T23:20:48.051Z,22.00
2018-11-27T23:23:17.589Z,22.90
2018-11-27T23:25:46.899Z,22.87
2018-11-27T23:28:16.787Z,25.33
2018-11-27T23:30:46.111Z,26.23
2018-11-27T23:33:15.407Z,24.53
2018-11-27T23:35:45.070Z,23.40
2018-11-27T23:38:14.618Z,24.13
2018-11-27T23:40:43.962Z,25.37
2018-11-27T23:43:13.558Z,19.43
2018-11-27T23:45:43.843Z,24.03
2018-11-27T23:48:13.902Z,23.10
2018-11-27T23:50:43.185Z,23.40
2018-11-27T23:53:12.485Z,24.10
2018-11-27T23:55:41.759Z,21.63
2018-11-27T23:58:11.016Z,25.60
